sensor_id;sensor_type;location;lat;lon;timestamp;temperature;humidity
17483;DHT22;8858;52.308;20.994;2022-12-10T00:02:06;2.20;99.90
17483;DHT22;8858;52.308;20.994;2022-12-10T00:04:35;2.20;99.90
17483;DHT22;8858;52.308;20.994;2022-12-10T00:07:03;2.20;99.90
17483;DHT22;8858;52.308;20.994;2022-12-10T00:09:34;2.20;99.90
17483;DHT22;8858;52.308;20.994;2022-12-10T00:12:03;2.20;99.90
17483;DHT22;8858;52.308;20.994;2022-12-10T00:14:33;2.20;99.90
17483;DHT22;8858;52.308;20.994;2022-12-10T00:17:01;2.20;99.90
17483;DHT22;8858;52.308;20.994;2022-12-10T00:19:37;2.20;99.90
17483;DHT22;8858;52.308;20.994;2022-12-10T00:22:08;2.20;99.90
17483;DHT22;8858;52.308;20.994;2022-12-10T00:24:37;2.20;99.90
17483;DHT22;8858;52.308;20.994;2022-12-10T00:27:05;2.20;99.90
17483;DHT22;8858;52.308;20.994;2022-12-10T00:29:35;2.20;99.90
17483;DHT22;8858;52.308;20.994;2022-12-10T00:32:04;2.20;99.90
17483;DHT22;8858;52.308;20.994;2022-12-10T00:34:32;2.20;99.90
17483;DHT22;8858;52.308;20.994;2022-12-10T00:37:04;2.20;99.90
17483;DHT22;8858;52.308;20.994;2022-12-10T00:39:35;2.20;99.90
17483;DHT22;8858;52.308;20.994;2022-12-10T00:42:06;2.20;99.90
17483;DHT22;8858;52.308;20.994;2022-12-10T00:44:35;2.20;99.90
17483;DHT22;8858;52.308;20.994;2022-12-10T00:47:04;2.20;99.90
17483;DHT22;8858;52.308;20.994;2022-12-10T00:49:33;2.20;99.90
17483;DHT22;8858;52.308;20.994;2022-12-10T00:52:05;2.20;99.90
17483;DHT22;8858;52.308;20.994;2022-12-10T00:54:33;2.20;99.90
17483;DHT22;8858;52.308;20.994;2022-12-10T00:57:01;2.20;99.90
17483;DHT22;8858;52.308;20.994;2022-12-10T00:59:30;2.20;99.90
17483;DHT22;8858;52.308;20.994;2022-12-10T01:02:01;2.20;99.90
17483;DHT22;8858;52.308;20.994;2022-12-10T01:04:33;2.20;99.90
17483;DHT22;8858;52.308;20.994;2022-12-10T01:07:01;2.20;99.90
17483;DHT22;8858;52.308;20.994;2022-12-10T01:09:39;2.20;99.90
17483;DHT22;8858;52.308;20.994;2022-12-10T01:12:08;2.20;99.90
17483;DHT22;8858;52.308;20.994;2022-12-10T01:14:37;2.20;99.90
17483;DHT22;8858;52.308;20.994;2022-12-10T01:17:06;2.20;99.90
17483;DHT22;8858;52.308;20.994;2022-12-10T01:19:36;2.20;99.90
17483;DHT22;8858;52.308;20.994;2022-12-10T01:22:07;2.20;99.90
17483;DHT22;8858;52.308;20.994;2022-12-10T01:24:37;2.20;99.90
17483;DHT22;8858;52.308;20.994;2022-12-10T01:27:05;2.20;99.90
17483;DHT22;8858;52.308;20.994;2022-12-10T01:29:33;2.20;99.90
17483;DHT22;8858;52.308;20.994;2022-12-10T01:32:03;2.20;99.90
17483;DHT22;8858;52.308;20.994;2022-12-10T01:34:32;2.30;99.90
17483;DHT22;8858;52.308;20.994;2022-12-10T01:37:01;2.20;99.90
17483;DHT22;8858;52.308;20.994;2022-12-10T01:39:31;2.20;99.90
17483;DHT22;8858;52.308;20.994;2022-12-10T01:42:00;2.30;99.90
17483;DHT22;8858;52.308;20.994;2022-12-10T01:44:57;2.20;99.90
17483;DHT22;8858;52.308;20.994;2022-12-10T01:47:27;2.30;99.90
17483;DHT22;8858;52.308;20.994;2022-12-10T01:50:02;2.20;99.90
17483;DHT22;8858;52.308;20.994;2022-12-10T01:52:37;2.20;99.90
17483;DHT22;8858;52.308;20.994;2022-12-10T01:55:41;2.20;99.90
17483;DHT22;8858;52.308;20.994;2022-12-10T01:58:09;2.20;99.90
17483;DHT22;8858;52.308;20.994;2022-12-10T02:00:43;2.30;99.90
17483;DHT22;8858;52.308;20.994;2022-12-10T02:03:20;2.20;99.90
17483;DHT22;8858;52.308;20.994;2022-12-10T02:06:02;2.20;99.90
17483;DHT22;8858;52.308;20.994;2022-12-10T02:08:40;2.20;99.90
17483;DHT22;8858;52.308;20.994;2022-12-10T02:11:14;2.20;99.90
17483;DHT22;8858;52.308;20.994;2022-12-10T02:13:55;2.20;99.90
17483;DHT22;8858;52.308;20.994;2022-12-10T02:16:33;2.20;99.90
17483;DHT22;8858;52.308;20.994;2022-12-10T02:19:09;2.20;99.90
17483;DHT22;8858;52.308;20.994;2022-12-10T02:21:46;2.20;99.90
17483;DHT22;8858;52.308;20.994;2022-12-10T02:24:21;2.20;99.90
17483;DHT22;8858;52.308;20.994;2022-12-10T02:26:58;2.20;99.90
17483;DHT22;8858;52.308;20.994;2022-12-10T02:29:29;2.20;99.90
17483;DHT22;8858;52.308;20.994;2022-12-10T02:32:02;2.20;99.90
17483;DHT22;8858;52.308;20.994;2022-12-10T02:34:37;2.20;99.90
17483;DHT22;8858;52.308;20.994;2022-12-10T02:37:10;2.20;99.90
17483;DHT22;8858;52.308;20.994;2022-12-10T02:39:42;2.20;99.90
17483;DHT22;8858;52.308;20.994;2022-12-10T02:42:15;2.20;99.90
17483;DHT22;8858;52.308;20.994;2022-12-10T02:45:11;2.20;99.90
17483;DHT22;8858;52.308;20.994;2022-12-10T02:47:40;2.20;99.90
17483;DHT22;8858;52.308;20.994;2022-12-10T02:50:15;2.20;99.90
17483;DHT22;8858;52.308;20.994;2022-12-10T02:52:48;2.20;99.90
17483;DHT22;8858;52.308;20.994;2022-12-10T02:55:21;2.20;99.90
17483;DHT22;8858;52.308;20.994;2022-12-10T02:58:12;2.20;99.90
17483;DHT22;8858;52.308;20.994;2022-12-10T03:00:53;2.20;99.90
17483;DHT22;8858;52.308;20.994;2022-12-10T03:03:34;2.20;99.90
17483;DHT22;8858;52.308;20.994;2022-12-10T03:06:11;2.20;99.90
17483;DHT22;8858;52.308;20.994;2022-12-10T03:08:45;2.20;99.90
17483;DHT22;8858;52.308;20.994;2022-12-10T03:11:16;2.20;99.90
17483;DHT22;8858;52.308;20.994;2022-12-10T03:13:50;2.20;99.90
17483;DHT22;8858;52.308;20.994;2022-12-10T03:16:24;2.20;99.90
17483;DHT22;8858;52.308;20.994;2022-12-10T03:18:57;2.10;99.90
17483;DHT22;8858;52.308;20.994;2022-12-10T03:21:27;2.10;99.90
17483;DHT22;8858;52.308;20.994;2022-12-10T03:23:58;2.20;99.90
17483;DHT22;8858;52.308;20.994;2022-12-10T03:26:27;2.20;99.90
17483;DHT22;8858;52.308;20.994;2022-12-10T03:29:00;2.20;99.90
17483;DHT22;8858;52.308;20.994;2022-12-10T03:31:32;2.20;99.90
17483;DHT22;8858;52.308;20.994;2022-12-10T03:34:02;2.20;99.90
17483;DHT22;8858;52.308;20.994;2022-12-10T03:36:32;2.20;99.90
17483;DHT22;8858;52.308;20.994;2022-12-10T03:39:06;2.20;99.90
17483;DHT22;8858;52.308;20.994;2022-12-10T03:41:34;2.20;99.90
17483;DHT22;8858;52.308;20.994;2022-12-10T03:44:04;2.20;99.90
17483;DHT22;8858;52.308;20.994;2022-12-10T03:46:35;2.20;99.90
17483;DHT22;8858;52.308;20.994;2022-12-10T03:49:05;2.20;99.90
17483;DHT22;8858;52.308;20.994;2022-12-10T03:51:34;2.20;99.90
17483;DHT22;8858;52.308;20.994;2022-12-10T03:54:02;2.20;99.90
17483;DHT22;8858;52.308;20.994;2022-12-10T03:56:34;2.20;99.90
17483;DHT22;8858;52.308;20.994;2022-12-10T03:59:02;2.20;99.90
17483;DHT22;8858;52.308;20.994;2022-12-10T04:01:31;2.20;99.90
17483;DHT22;8858;52.308;20.994;2022-12-10T04:04:00;2.20;99.90
17483;DHT22;8858;52.308;20.994;2022-12-10T04:06:29;2.20;99.90
17483;DHT22;8858;52.308;20.994;2022-12-10T04:09:01;2.20;99.90
17483;DHT22;8858;52.308;20.994;2022-12-10T04:11:30;2.20;99.90
17483;DHT22;8858;52.308;20.994;2022-12-10T04:13:58;2.20;99.90
17483;DHT22;8858;52.308;20.994;2022-12-10T04:16:49;2.20;99.90
17483;DHT22;8858;52.308;20.994;2022-12-10T04:19:19;2.20;99.90
17483;DHT22;8858;52.308;20.994;2022-12-10T04:21:50;2.20;99.90
17483;DHT22;8858;52.308;20.994;2022-12-10T04:24:37;2.10;99.90
17483;DHT22;8858;52.308;20.994;2022-12-10T04:27:25;2.20;99.90
17483;DHT22;8858;52.308;20.994;2022-12-10T04:29:56;2.10;99.90
17483;DHT22;8858;52.308;20.994;2022-12-10T04:32:29;2.10;99.90
17483;DHT22;8858;52.308;20.994;2022-12-10T04:34:58;2.20;99.90
17483;DHT22;8858;52.308;20.994;2022-12-10T04:37:27;2.20;99.90
17483;DHT22;8858;52.308;20.994;2022-12-10T04:39:55;2.10;99.90
17483;DHT22;8858;52.308;20.994;2022-12-10T04:42:25;2.20;99.90
17483;DHT22;8858;52.308;20.994;2022-12-10T04:44:56;2.20;99.90
17483;DHT22;8858;52.308;20.994;2022-12-10T04:47:26;2.20;99.90
17483;DHT22;8858;52.308;20.994;2022-12-10T04:49:54;2.10;99.90
17483;DHT22;8858;52.308;20.994;2022-12-10T04:52:24;2.10;99.90
17483;DHT22;8858;52.308;20.994;2022-12-10T04:54:53;2.20;99.90
17483;DHT22;8858;52.308;20.994;2022-12-10T04:57:22;2.10;99.90
17483;DHT22;8858;52.308;20.994;2022-12-10T04:59:50;2.10;99.90
17483;DHT22;8858;52.308;20.994;2022-12-10T05:02:19;2.10;99.90
17483;DHT22;8858;52.308;20.994;2022-12-10T05:04:48;2.10;99.90
17483;DHT22;8858;52.308;20.994;2022-12-10T05:07:18;2.20;99.90
17483;DHT22;8858;52.308;20.994;2022-12-10T05:09:48;2.10;99.90
17483;DHT22;8858;52.308;20.994;2022-12-10T05:12:17;2.10;99.90
17483;DHT22;8858;52.308;20.994;2022-12-10T05:14:45;2.20;99.90
17483;DHT22;8858;52.308;20.994;2022-12-10T05:17:14;2.10;99.90
17483;DHT22;8858;52.308;20.994;2022-12-10T05:19:46;2.10;99.90
17483;DHT22;8858;52.308;20.994;2022-12-10T05:22:14;2.10;99.90
17483;DHT22;8858;52.308;20.994;2022-12-10T05:25:03;2.10;99.90
17483;DHT22;8858;52.308;20.994;2022-12-10T05:27:32;2.10;99.90
17483;DHT22;8858;52.308;20.994;2022-12-10T05:30:00;2.10;99.90
17483;DHT22;8858;52.308;20.994;2022-12-10T05:32:29;2.10;99.90
17483;DHT22;8858;52.308;20.994;2022-12-10T05:34:58;2.10;99.90
17483;DHT22;8858;52.308;20.994;2022-12-10T05:37:27;2.10;99.90
17483;DHT22;8858;52.308;20.994;2022-12-10T05:39:56;2.10;99.90
17483;DHT22;8858;52.308;20.994;2022-12-10T05:42:26;2.10;99.90
17483;DHT22;8858;52.308;20.994;2022-12-10T05:44:55;2.10;99.90
17483;DHT22;8858;52.308;20.994;2022-12-10T05:47:24;2.10;99.90
17483;DHT22;8858;52.308;20.994;2022-12-10T05:49:52;2.10;99.90
17483;DHT22;8858;52.308;20.994;2022-12-10T05:52:24;2.10;99.90
17483;DHT22;8858;52.308;20.994;2022-12-10T05:54:53;2.00;99.90
17483;DHT22;8858;52.308;20.994;2022-12-10T05:57:21;2.00;99.90
17483;DHT22;8858;52.308;20.994;2022-12-10T05:59:51;2.00;99.90
17483;DHT22;8858;52.308;20.994;2022-12-10T06:02:20;2.00;99.90
17483;DHT22;8858;52.308;20.994;2022-12-10T06:04:50;2.00;99.90
17483;DHT22;8858;52.308;20.994;2022-12-10T06:07:19;2.00;99.90
17483;DHT22;8858;52.308;20.994;2022-12-10T06:09:48;2.00;99.90
17483;DHT22;8858;52.308;20.994;2022-12-10T06:12:16;2.00;99.90
17483;DHT22;8858;52.308;20.994;2022-12-10T06:14:46;2.00;99.90
17483;DHT22;8858;52.308;20.994;2022-12-10T06:17:20;2.00;99.90
17483;DHT22;8858;52.308;20.994;2022-12-10T06:19:49;2.00;99.90
17483;DHT22;8858;52.308;20.994;2022-12-10T06:22:18;2.00;99.90
17483;DHT22;8858;52.308;20.994;2022-12-10T06:24:46;2.00;99.90
17483;DHT22;8858;52.308;20.994;2022-12-10T06:27:15;2.00;99.90
17483;DHT22;8858;52.308;20.994;2022-12-10T06:29:46;2.00;99.90
17483;DHT22;8858;52.308;20.994;2022-12-10T06:32:14;2.00;99.90
17483;DHT22;8858;52.308;20.994;2022-12-10T06:34:44;2.00;99.90
17483;DHT22;8858;52.308;20.994;2022-12-10T06:37:13;2.00;99.90
17483;DHT22;8858;52.308;20.994;2022-12-10T06:39:44;2.00;99.90
17483;DHT22;8858;52.308;20.994;2022-12-10T06:42:12;2.00;99.90
17483;DHT22;8858;52.308;20.994;2022-12-10T06:44:41;2.00;99.90
17483;DHT22;8858;52.308;20.994;2022-12-10T06:47:10;2.00;99.90
17483;DHT22;8858;52.308;20.994;2022-12-10T06:49:38;2.00;99.90
17483;DHT22;8858;52.308;20.994;2022-12-10T06:52:08;2.00;99.90
17483;DHT22;8858;52.308;20.994;2022-12-10T06:54:36;2.10;99.90
17483;DHT22;8858;52.308;20.994;2022-12-10T06:57:05;2.00;99.90
17483;DHT22;8858;52.308;20.994;2022-12-10T06:59:33;2.00;99.90
17483;DHT22;8858;52.308;20.994;2022-12-10T07:02:05;2.00;99.90
17483;DHT22;8858;52.308;20.994;2022-12-10T07:04:33;2.00;99.90
17483;DHT22;8858;52.308;20.994;2022-12-10T07:07:02;2.00;99.90
17483;DHT22;8858;52.308;20.994;2022-12-10T07:09:37;2.00;99.90
17483;DHT22;8858;52.308;20.994;2022-12-10T07:12:05;2.00;99.90
17483;DHT22;8858;52.308;20.994;2022-12-10T07:14:34;2.00;99.90
17483;DHT22;8858;52.308;20.994;2022-12-10T07:17:02;2.00;99.90
17483;DHT22;8858;52.308;20.994;2022-12-10T07:19:32;2.00;99.90
17483;DHT22;8858;52.308;20.994;2022-12-10T07:22:01;2.00;99.90
17483;DHT22;8858;52.308;20.994;2022-12-10T07:24:29;2.00;99.90
17483;DHT22;8858;52.308;20.994;2022-12-10T07:27:04;2.00;99.90
17483;DHT22;8858;52.308;20.994;2022-12-10T07:29:35;2.00;99.90
17483;DHT22;8858;52.308;20.994;2022-12-10T07:32:03;2.00;99.90
17483;DHT22;8858;52.308;20.994;2022-12-10T07:34:31;2.00;99.90
17483;DHT22;8858;52.308;20.994;2022-12-10T07:36:59;2.00;99.90
17483;DHT22;8858;52.308;20.994;2022-12-10T07:39:30;2.00;99.90
17483;DHT22;8858;52.308;20.994;2022-12-10T07:41:58;2.10;99.90
17483;DHT22;8858;52.308;20.994;2022-12-10T07:44:29;2.10;99.90
17483;DHT22;8858;52.308;20.994;2022-12-10T07:46:57;2.10;99.90
17483;DHT22;8858;52.308;20.994;2022-12-10T07:49:26;2.20;99.90
17483;DHT22;8858;52.308;20.994;2022-12-10T07:51:55;2.10;99.90
17483;DHT22;8858;52.308;20.994;2022-12-10T07:54:23;2.20;99.90
17483;DHT22;8858;52.308;20.994;2022-12-10T07:56:52;2.20;99.90
17483;DHT22;8858;52.308;20.994;2022-12-10T07:59:20;2.20;99.90
17483;DHT22;8858;52.308;20.994;2022-12-10T08:01:53;2.20;99.90
17483;DHT22;8858;52.308;20.994;2022-12-10T08:04:33;2.20;99.90
17483;DHT22;8858;52.308;20.994;2022-12-10T08:07:01;2.20;99.90
17483;DHT22;8858;52.308;20.994;2022-12-10T08:09:32;2.20;99.90
17483;DHT22;8858;52.308;20.994;2022-12-10T08:12:00;2.20;99.90
17483;DHT22;8858;52.308;20.994;2022-12-10T08:14:28;2.20;99.90
17483;DHT22;8858;52.308;20.994;2022-12-10T08:16:58;2.20;99.90
17483;DHT22;8858;52.308;20.994;2022-12-10T08:19:29;2.20;99.90
17483;DHT22;8858;52.308;20.994;2022-12-10T08:21:59;2.20;99.90
17483;DHT22;8858;52.308;20.994;2022-12-10T08:24:27;2.20;99.90
17483;DHT22;8858;52.308;20.994;2022-12-10T08:26:56;2.20;99.90
17483;DHT22;8858;52.308;20.994;2022-12-10T08:29:24;2.20;99.90
17483;DHT22;8858;52.308;20.994;2022-12-10T08:31:55;2.20;99.90
17483;DHT22;8858;52.308;20.994;2022-12-10T08:34:25;2.20;99.90
17483;DHT22;8858;52.308;20.994;2022-12-10T08:36:54;2.30;99.90
17483;DHT22;8858;52.308;20.994;2022-12-10T08:39:22;2.30;99.90
17483;DHT22;8858;52.308;20.994;2022-12-10T08:41:50;2.30;99.90
17483;DHT22;8858;52.308;20.994;2022-12-10T08:44:19;2.30;99.90
17483;DHT22;8858;52.308;20.994;2022-12-10T08:46:47;2.30;99.90
17483;DHT22;8858;52.308;20.994;2022-12-10T08:49:16;2.30;99.90
17483;DHT22;8858;52.308;20.994;2022-12-10T08:51:46;2.30;99.90
17483;DHT22;8858;52.308;20.994;2022-12-10T08:54:17;2.30;99.90
17483;DHT22;8858;52.308;20.994;2022-12-10T08:56:45;2.40;99.90
17483;DHT22;8858;52.308;20.994;2022-12-10T08:59:14;2.40;99.90
17483;DHT22;8858;52.308;20.994;2022-12-10T09:01:42;2.40;99.90
17483;DHT22;8858;52.308;20.994;2022-12-10T09:04:10;2.40;99.90
17483;DHT22;8858;52.308;20.994;2022-12-10T09:06:40;2.40;99.90
17483;DHT22;8858;52.308;20.994;2022-12-10T09:09:09;2.40;99.90
17483;DHT22;8858;52.308;20.994;2022-12-10T09:11:37;2.40;99.90
17483;DHT22;8858;52.308;20.994;2022-12-10T09:14:07;2.40;99.90
17483;DHT22;8858;52.308;20.994;2022-12-10T09:16:37;2.40;99.90
17483;DHT22;8858;52.308;20.994;2022-12-10T09:19:06;2.40;99.90
17483;DHT22;8858;52.308;20.994;2022-12-10T09:21:35;2.30;99.90
17483;DHT22;8858;52.308;20.994;2022-12-10T09:24:04;2.40;99.90
17483;DHT22;8858;52.308;20.994;2022-12-10T09:26:35;2.40;99.90
17483;DHT22;8858;52.308;20.994;2022-12-10T09:29:03;2.40;99.90
17483;DHT22;8858;52.308;20.994;2022-12-10T09:31:32;2.40;99.90
17483;DHT22;8858;52.308;20.994;2022-12-10T09:34:01;2.40;99.90
17483;DHT22;8858;52.308;20.994;2022-12-10T09:36:30;2.50;99.90
17483;DHT22;8858;52.308;20.994;2022-12-10T09:39:00;2.50;99.90
17483;DHT22;8858;52.308;20.994;2022-12-10T09:42:05;2.40;99.90
17483;DHT22;8858;52.308;20.994;2022-12-10T09:44:45;2.50;99.90
17483;DHT22;8858;52.308;20.994;2022-12-10T09:47:15;2.50;99.90
17483;DHT22;8858;52.308;20.994;2022-12-10T09:49:54;2.50;99.90
17483;DHT22;8858;52.308;20.994;2022-12-10T09:52:27;2.50;99.90
17483;DHT22;8858;52.308;20.994;2022-12-10T09:55:00;2.50;99.90
17483;DHT22;8858;52.308;20.994;2022-12-10T09:57:33;2.60;99.90
17483;DHT22;8858;52.308;20.994;2022-12-10T10:00:06;2.60;99.90
17483;DHT22;8858;52.308;20.994;2022-12-10T10:02:44;2.60;99.90
17483;DHT22;8858;52.308;20.994;2022-12-10T10:05:17;2.70;99.90
17483;DHT22;8858;52.308;20.994;2022-12-10T10:07:51;2.70;99.90
17483;DHT22;8858;52.308;20.994;2022-12-10T10:10:25;2.70;99.90
17483;DHT22;8858;52.308;20.994;2022-12-10T10:13:00;2.70;99.90
17483;DHT22;8858;52.308;20.994;2022-12-10T10:15:32;2.70;99.90
17483;DHT22;8858;52.308;20.994;2022-12-10T10:18:05;2.70;99.90
17483;DHT22;8858;52.308;20.994;2022-12-10T10:20:37;2.70;99.90
17483;DHT22;8858;52.308;20.994;2022-12-10T10:23:07;2.80;99.90
17483;DHT22;8858;52.308;20.994;2022-12-10T10:25:37;2.70;99.90
17483;DHT22;8858;52.308;20.994;2022-12-10T10:28:16;2.80;99.90
17483;DHT22;8858;52.308;20.994;2022-12-10T10:30:45;2.80;99.90
17483;DHT22;8858;52.308;20.994;2022-12-10T10:33:18;2.80;99.90
17483;DHT22;8858;52.308;20.994;2022-12-10T10:35:48;2.80;99.90
17483;DHT22;8858;52.308;20.994;2022-12-10T10:38:20;2.70;99.90
17483;DHT22;8858;52.308;20.994;2022-12-10T10:40:52;2.70;99.90
17483;DHT22;8858;52.308;20.994;2022-12-10T10:43:25;2.70;99.90
17483;DHT22;8858;52.308;20.994;2022-12-10T10:45:56;2.70;99.90
17483;DHT22;8858;52.308;20.994;2022-12-10T10:48:28;2.80;99.90
17483;DHT22;8858;52.308;20.994;2022-12-10T10:51:07;2.80;99.90
17483;DHT22;8858;52.308;20.994;2022-12-10T10:53:41;2.80;99.90
17483;DHT22;8858;52.308;20.994;2022-12-10T10:56:12;2.80;99.90
17483;DHT22;8858;52.308;20.994;2022-12-10T10:58:51;2.80;99.90
17483;DHT22;8858;52.308;20.994;2022-12-10T11:01:23;2.80;99.90
17483;DHT22;8858;52.308;20.994;2022-12-10T11:03:55;2.80;99.90
17483;DHT22;8858;52.308;20.994;2022-12-10T11:06:25;2.80;99.90
17483;DHT22;8858;52.308;20.994;2022-12-10T11:08:57;2.80;99.90
17483;DHT22;8858;52.308;20.994;2022-12-10T11:11:33;2.80;99.90
17483;DHT22;8858;52.308;20.994;2022-12-10T11:14:23;2.80;99.90
17483;DHT22;8858;52.308;20.994;2022-12-10T11:17:00;2.80;99.90
17483;DHT22;8858;52.308;20.994;2022-12-10T11:19:32;2.80;99.90
17483;DHT22;8858;52.308;20.994;2022-12-10T11:22:16;2.80;99.90
17483;DHT22;8858;52.308;20.994;2022-12-10T11:24:46;2.80;99.90
17483;DHT22;8858;52.308;20.994;2022-12-10T11:27:18;2.80;99.90
17483;DHT22;8858;52.308;20.994;2022-12-10T11:29:57;2.80;99.90
17483;DHT22;8858;52.308;20.994;2022-12-10T11:32:37;2.80;99.90
17483;DHT22;8858;52.308;20.994;2022-12-10T11:35:13;2.80;99.90
17483;DHT22;8858;52.308;20.994;2022-12-10T11:37:51;2.80;99.90
17483;DHT22;8858;52.308;20.994;2022-12-10T11:40:50;2.80;99.90
17483;DHT22;8858;52.308;20.994;2022-12-10T11:43:42;2.80;99.90
17483;DHT22;8858;52.308;20.994;2022-12-10T11:46:30;2.80;99.90
17483;DHT22;8858;52.308;20.994;2022-12-10T11:49:14;2.80;99.90
17483;DHT22;8858;52.308;20.994;2022-12-10T11:51:55;2.80;99.90
17483;DHT22;8858;52.308;20.994;2022-12-10T11:54:43;2.80;99.90
17483;DHT22;8858;52.308;20.994;2022-12-10T11:57:25;2.80;99.90
17483;DHT22;8858;52.308;20.994;2022-12-10T12:00:00;2.80;99.90
17483;DHT22;8858;52.308;20.994;2022-12-10T12:02:59;2.70;99.90
17483;DHT22;8858;52.308;20.994;2022-12-10T12:05:52;2.70;99.90
17483;DHT22;8858;52.308;20.994;2022-12-10T12:08:42;2.70;99.90
17483;DHT22;8858;52.308;20.994;2022-12-10T12:11:34;2.70;99.90
17483;DHT22;8858;52.308;20.994;2022-12-10T12:14:16;2.70;99.90
17483;DHT22;8858;52.308;20.994;2022-12-10T12:16:49;2.70;99.90
17483;DHT22;8858;52.308;20.994;2022-12-10T12:19:25;2.70;99.90
17483;DHT22;8858;52.308;20.994;2022-12-10T12:21:57;2.80;99.90
17483;DHT22;8858;52.308;20.994;2022-12-10T12:24:34;2.70;99.90
17483;DHT22;8858;52.308;20.994;2022-12-10T12:27:11;2.70;99.90
17483;DHT22;8858;52.308;20.994;2022-12-10T12:29:43;2.70;99.90
17483;DHT22;8858;52.308;20.994;2022-12-10T12:32:18;2.70;99.90
17483;DHT22;8858;52.308;20.994;2022-12-10T12:34:51;2.70;99.90
17483;DHT22;8858;52.308;20.994;2022-12-10T12:37:35;2.70;99.90
17483;DHT22;8858;52.308;20.994;2022-12-10T12:40:12;2.70;99.90
17483;DHT22;8858;52.308;20.994;2022-12-10T12:42:49;2.70;99.90
17483;DHT22;8858;52.308;20.994;2022-12-10T12:45:30;2.70;99.90
17483;DHT22;8858;52.308;20.994;2022-12-10T12:48:04;2.70;99.90
17483;DHT22;8858;52.308;20.994;2022-12-10T12:50:42;2.70;99.90
17483;DHT22;8858;52.308;20.994;2022-12-10T12:53:13;2.70;99.90
17483;DHT22;8858;52.308;20.994;2022-12-10T12:55:49;2.60;99.90
17483;DHT22;8858;52.308;20.994;2022-12-10T12:58:25;2.60;99.90
17483;DHT22;8858;52.308;20.994;2022-12-10T13:00:58;2.60;99.90
17483;DHT22;8858;52.308;20.994;2022-12-10T13:03:34;2.60;99.90
17483;DHT22;8858;52.308;20.994;2022-12-10T13:06:17;2.60;99.90
17483;DHT22;8858;52.308;20.994;2022-12-10T13:08:49;2.70;99.90
17483;DHT22;8858;52.308;20.994;2022-12-10T13:11:30;2.60;99.90
17483;DHT22;8858;52.308;20.994;2022-12-10T13:14:28;2.60;99.90
17483;DHT22;8858;52.308;20.994;2022-12-10T13:17:24;2.60;99.90
17483;DHT22;8858;52.308;20.994;2022-12-10T13:20:32;2.60;99.90
17483;DHT22;8858;52.308;20.994;2022-12-10T13:23:04;2.60;99.90
17483;DHT22;8858;52.308;20.994;2022-12-10T13:25:57;2.50;99.90
17483;DHT22;8858;52.308;20.994;2022-12-10T13:28:30;2.50;99.90
17483;DHT22;8858;52.308;20.994;2022-12-10T13:31:35;2.50;99.90
17483;DHT22;8858;52.308;20.994;2022-12-10T13:34:21;2.50;99.90
17483;DHT22;8858;52.308;20.994;2022-12-10T13:37:28;2.50;99.90
17483;DHT22;8858;52.308;20.994;2022-12-10T13:40:21;2.50;99.90
17483;DHT22;8858;52.308;20.994;2022-12-10T13:42:58;2.50;99.90
17483;DHT22;8858;52.308;20.994;2022-12-10T13:46:25;2.50;99.90
17483;DHT22;8858;52.308;20.994;2022-12-10T13:48:55;2.50;99.90
17483;DHT22;8858;52.308;20.994;2022-12-10T13:51:35;2.50;99.90
17483;DHT22;8858;52.308;20.994;2022-12-10T13:54:24;2.50;99.90
17483;DHT22;8858;52.308;20.994;2022-12-10T13:57:03;2.50;99.90
17483;DHT22;8858;52.308;20.994;2022-12-10T13:59:40;2.50;99.90
17483;DHT22;8858;52.308;20.994;2022-12-10T14:02:34;2.50;99.90
17483;DHT22;8858;52.308;20.994;2022-12-10T14:05:34;2.50;99.90
17483;DHT22;8858;52.308;20.994;2022-12-10T14:08:12;2.40;99.90
17483;DHT22;8858;52.308;20.994;2022-12-10T14:10:44;2.40;99.90
17483;DHT22;8858;52.308;20.994;2022-12-10T14:13:17;2.50;99.90
17483;DHT22;8858;52.308;20.994;2022-12-10T14:15:53;2.40;99.90
17483;DHT22;8858;52.308;20.994;2022-12-10T14:18:23;2.40;99.90
17483;DHT22;8858;52.308;20.994;2022-12-10T14:20:53;2.40;99.90
17483;DHT22;8858;52.308;20.994;2022-12-10T14:23:26;2.40;99.90
17483;DHT22;8858;52.308;20.994;2022-12-10T14:26:14;2.40;99.90
17483;DHT22;8858;52.308;20.994;2022-12-10T14:28:47;2.40;99.90
17483;DHT22;8858;52.308;20.994;2022-12-10T14:31:19;2.40;99.90
17483;DHT22;8858;52.308;20.994;2022-12-10T14:33:49;2.40;99.90
17483;DHT22;8858;52.308;20.994;2022-12-10T14:36:26;2.30;99.90
17483;DHT22;8858;52.308;20.994;2022-12-10T14:38:55;2.30;99.90
17483;DHT22;8858;52.308;20.994;2022-12-10T14:41:29;2.30;99.90
17483;DHT22;8858;52.308;20.994;2022-12-10T14:44:14;2.40;99.90
17483;DHT22;8858;52.308;20.994;2022-12-10T14:46:43;2.40;99.90
17483;DHT22;8858;52.308;20.994;2022-12-10T14:49:20;2.40;99.90
17483;DHT22;8858;52.308;20.994;2022-12-10T14:51:49;2.40;99.90
17483;DHT22;8858;52.308;20.994;2022-12-10T14:54:25;2.30;99.90
17483;DHT22;8858;52.308;20.994;2022-12-10T14:57:02;2.30;99.90
17483;DHT22;8858;52.308;20.994;2022-12-10T14:59:40;2.30;99.90
17483;DHT22;8858;52.308;20.994;2022-12-10T15:02:16;2.30;99.90
17483;DHT22;8858;52.308;20.994;2022-12-10T15:04:47;2.30;99.90
17483;DHT22;8858;52.308;20.994;2022-12-10T15:07:20;2.20;99.90
17483;DHT22;8858;52.308;20.994;2022-12-10T15:09:54;2.30;99.90
17483;DHT22;8858;52.308;20.994;2022-12-10T15:12:31;2.20;99.90
17483;DHT22;8858;52.308;20.994;2022-12-10T15:15:07;2.20;99.90
17483;DHT22;8858;52.308;20.994;2022-12-10T15:17:39;2.20;99.90
17483;DHT22;8858;52.308;20.994;2022-12-10T15:20:20;2.20;99.90
17483;DHT22;8858;52.308;20.994;2022-12-10T15:22:50;2.20;99.90
17483;DHT22;8858;52.308;20.994;2022-12-10T15:25:23;2.20;99.90
17483;DHT22;8858;52.308;20.994;2022-12-10T15:28:00;2.20;99.90
17483;DHT22;8858;52.308;20.994;2022-12-10T15:30:35;2.20;99.90
17483;DHT22;8858;52.308;20.994;2022-12-10T15:33:20;2.10;99.90
17483;DHT22;8858;52.308;20.994;2022-12-10T15:35:50;2.10;99.90
17483;DHT22;8858;52.308;20.994;2022-12-10T15:38:22;2.10;99.90
17483;DHT22;8858;52.308;20.994;2022-12-10T15:40:50;2.10;99.90
17483;DHT22;8858;52.308;20.994;2022-12-10T15:43:27;2.10;99.90
17483;DHT22;8858;52.308;20.994;2022-12-10T15:45:57;2.00;99.90
17483;DHT22;8858;52.308;20.994;2022-12-10T15:48:29;2.00;99.90
17483;DHT22;8858;52.308;20.994;2022-12-10T15:50:57;2.00;99.90
17483;DHT22;8858;52.308;20.994;2022-12-10T15:53:27;2.00;99.90
17483;DHT22;8858;52.308;20.994;2022-12-10T15:56:06;2.00;99.90
17483;DHT22;8858;52.308;20.994;2022-12-10T15:58:35;2.00;99.90
17483;DHT22;8858;52.308;20.994;2022-12-10T16:01:04;2.00;99.90
17483;DHT22;8858;52.308;20.994;2022-12-10T16:03:32;2.00;99.90
17483;DHT22;8858;52.308;20.994;2022-12-10T16:06:01;2.00;99.90
17483;DHT22;8858;52.308;20.994;2022-12-10T16:08:32;2.00;99.90
17483;DHT22;8858;52.308;20.994;2022-12-10T16:11:10;2.00;99.90
17483;DHT22;8858;52.308;20.994;2022-12-10T16:13:48;2.00;99.90
17483;DHT22;8858;52.308;20.994;2022-12-10T16:16:16;2.00;99.90
17483;DHT22;8858;52.308;20.994;2022-12-10T16:18:45;2.00;99.90
17483;DHT22;8858;52.308;20.994;2022-12-10T16:21:14;1.90;99.90
17483;DHT22;8858;52.308;20.994;2022-12-10T16:23:43;2.00;99.90
17483;DHT22;8858;52.308;20.994;2022-12-10T16:26:15;2.00;99.90